Terminal Aerodrome Forecast
Issued by NWS

Home | Current Version | Previous Version | Text Only | Print | Product List | Glossary On
Versions: 1 2 3 4 5 6 7 8 9 10 11 12 13 14 15 16 17 18 19 20 21 22 23 24 25 26 27 28
000
FTUS44 KLIX 280500 RRA
TAFHUM
TAF
KHUM 280542Z 2806/2906 20008KT 5SM BR BKN005 OVC050
     FM280900 21004KT 3SM SHRA BR OVC005
     FM281500 27005KT 5SM SHRA BR OVC005
     FM281800 31005KT 5SM SHRA BR OVC008
     FM290000 35010KT 5SM BR OVC007=

USA.gov is the U.S. government's official web portal to all federal, state and local government web resources and services.